หน้าหลัก
METAR-TAF:

METAR-TAF

ท่าอากาศยาน :

Thule, กรีนแลนด์

ละติจูด: 76-32N, ลองจิจูด: 068-42W, ความสูง: 77 ม.

การสังเกตสภาพอากาศปัจจุบัน

รายงานได้ทำขึ้นเมื่อ 1 ชั่วโมงและ 46 นาทีที่แล้ว ณ เวลา 22:55 UTC
ลม 8 นอตจากตะวันออก
อุณหภูมิ -23°C
ความชื้น 58%
ความกดอากาศ 1014 hPa
ทัศนวิสัย 10 กม. หรือมากกว่า
ท้องฟ้าแจ่มใส

METAR: BGTL 202255Z AUTO 10008KT 9999 CLR M23/M29 A2994 RMK AO2 SLP132 T12341289 TSNO $

เวลา: 21:41 (00:41 UTC)

การพยากรณ์

รายงานได้ทำขึ้นเมื่อ 5 ชั่วโมงและ 41 นาทีที่แล้ว ณ เวลา 19:00 UTC
การพยากรณ์มีผลตั้งแต่วันที่ 20 ณ เวลา 19 UTC จนถึงวันที่ 22 ณ เวลา 01 UTC
ลม 7 นอตจากตะวันออก
ทัศนวิสัย: 2111 ม.
ท้องฟ้าแจ่มใส

TAF: BGTL 201900Z 2019/2201 10007KT 9999 SKC QNH2983INS TXM13/2115Z TNM24/2020Z LAST NO AMDS AFT 2019 NEXT 2111

สังเกตการณ์สภาพอากาศและพยากรณ์อากาศของสนามบินมากกว่า 4000 แห่ง (รายงาน METAR และ TAF).

สถานีที่ดูได้จะแสดงไว้ด้วยจุดสีเหลืองและสีแดงบนแผนที่.

เลื่อนเมาส์ไปเหนือจุดเพื่อดูชื่อสถานี.

แล้วคลิกเพื่อดูสังเกตการณ์และการพยากรณ์สภาพอากาศ.

ในการเปลี่ยนแผนที่: คลิกที่ปุ่มสีเขียวที่มีกากบาทสีดำเพื่อซูมเข้า; ที่ปุ่มสีเขียวที่มีขีดเพื่อซูมออก; หรือที่ลูกศรสีเขียวเพื่อไปยังแผนที่ที่อยู่ติดกัน.


METAR-TAF: